Time;durP1;ratioP1;P1;durP2;ratioP2;P2;SDS_P1;SDS_P2;PMS_P1;PMS_P2;Temp;Humidity;BMP_temperature;BMP_pressure;BME280_temperature;BME280_humidity;BME280_pressure;Samples;Min_cycle;Max_cycle;Signal;HPM_P1;HPM_P2
2022/05/31 00:01:36;;;;;;;3.23;1.80;;;;;;;12.05;54.50;96310.81;5064089;28;20243;-76
2022/05/31 00:04:01;;;;;;;5.37;2.10;;;;;;;11.90;55.26;96310.66;5070433;28;20189;-77
2022/05/31 00:06:26;;;;;;;1.57;1.47;;;;;;;11.79;55.38;96303.69;5054371;28;20188;-77
2022/05/31 00:08:53;;;;;;;2.10;1.80;;;;;;;11.95;54.93;96305.44;5072198;28;20281;-76
2022/05/31 00:11:19;;;;;;;1.93;1.70;;;;;;;11.87;55.49;96310.38;5072238;28;20181;-76
2022/05/31 00:13:45;;;;;;;4.47;1.90;;;;;;;11.73;55.90;96306.47;5072003;28;20177;-76
2022/05/31 00:16:10;;;;;;;2.37;1.60;;;;;;;11.70;55.96;96297.28;5054249;28;20540;-76
2022/05/31 00:18:36;;;;;;;2.87;1.70;;;;;;;11.72;56.18;96299.63;5072197;28;20209;-76
2022/05/31 00:21:02;;;;;;;2.27;1.90;;;;;;;11.64;56.22;96296.44;5072208;28;20174;-76
2022/05/31 00:23:27;;;;;;;2.23;2.00;;;;;;;11.80;56.13;96294.78;5069933;28;20262;-76
2022/05/31 00:25:52;;;;;;;2.10;1.77;;;;;;;11.59;56.57;96287.69;5072320;28;20169;-76
2022/05/31 00:28:18;;;;;;;1.77;1.67;;;;;;;11.76;55.86;96290.28;5072111;28;20193;-76
2022/05/31 00:30:43;;;;;;;3.13;1.90;;;;;;;11.85;55.69;96289.59;5071625;28;20246;-76
2022/05/31 00:33:10;;;;;;;1.70;1.60;;;;;;;11.81;56.10;96295.59;5071321;28;20268;-76
2022/05/31 00:35:40;;;;;;;2.03;1.90;;;;;;;11.92;56.02;96292.81;5071128;28;20185;-76
2022/05/31 00:38:07;;;;;;;3.90;2.10;;;;;;;11.86;55.97;96285.94;5072063;28;20623;-76
2022/05/31 00:40:35;;;;;;;4.23;1.93;;;;;;;11.97;55.69;96292.09;5072081;28;20651;-76
2022/05/31 00:43:04;;;;;;;1.90;1.80;;;;;;;12.06;55.26;96293.22;5071702;28;20185;-76
2022/05/31 00:45:52;;;;;;;2.93;1.83;;;;;;;12.01;55.52;96291.34;5071979;28;20181;-76
2022/05/31 00:48:25;;;;;;;2.33;2.10;;;;;;;11.82;55.98;96290.06;5072097;28;20258;-76
2022/05/31 00:51:00;;;;;;;3.40;2.30;;;;;;;11.55;57.12;96283.94;5072067;28;20174;-77
2022/05/31 00:53:32;;;;;;;2.20;2.00;;;;;;;11.74;56.43;96282.66;5071243;28;20181;-76
2022/05/31 00:56:00;;;;;;;2.00;1.90;;;;;;;11.59;57.29;96285.84;5072207;28;20187;-76
2022/05/31 00:58:36;;;;;;;2.40;2.03;;;;;;;11.71;56.67;96287.53;5071628;28;20232;-76
2022/05/31 01:01:05;;;;;;;2.20;2.00;;;;;;;11.82;56.53;96287.44;5070997;28;20646;-77
2022/05/31 01:03:32;;;;;;;2.47;2.03;;;;;;;11.94;55.68;96285.47;5071200;28;20185;-77
2022/05/31 01:05:58;;;;;;;3.73;2.27;;;;;;;11.79;56.07;96287.16;5071788;28;20651;-76
2022/05/31 01:08:23;;;;;;;2.47;2.00;;;;;;;11.88;55.97;96288.28;5071357;28;20216;-76
2022/05/31 01:10:49;;;;;;;2.30;2.10;;;;;;;11.76;56.31;96288.44;5073866;28;20694;-76
2022/05/31 01:13:17;;;;;;;2.67;2.10;;;;;;;11.74;56.09;96281.84;5075552;28;20235;-76
2022/05/31 01:15:45;;;;;;;3.40;2.37;;;;;;;11.63;56.64;96286.97;5059929;28;20173;-76
2022/05/31 01:18:11;;;;;;;3.43;2.03;;;;;;;11.60;56.85;96286.63;5075997;28;20212;-76
2022/05/31 01:20:36;;;;;;;2.83;2.03;;;;;;;11.79;55.78;96284.53;5075906;28;20187;-76
2022/05/31 01:23:12;;;;;;;2.30;2.13;;;;;;;11.77;56.24;96291.84;5073454;28;20182;-76
2022/05/31 01:26:01;;;;;;;2.70;2.50;;;;;;;11.77;56.29;96292.63;5075411;28;20249;-76
2022/05/31 01:28:29;;;;;;;3.27;2.37;;;;;;;11.76;56.26;96296.28;5062453;28;20272;-76
2022/05/31 01:31:17;;;;;;;2.50;2.20;;;;;;;11.71;56.27;96293.59;5057255;28;20178;-76
2022/05/31 01:33:46;;;;;;;3.70;2.47;;;;;;;11.53;57.58;96288.69;5074632;28;20201;-76
2022/05/31 01:36:22;;;;;;;2.73;2.10;;;;;;;11.36;57.86;96293.19;5074629;28;20182;-76
2022/05/31 01:39:04;;;;;;;2.93;2.30;;;;;;;11.44;57.67;96283.03;5075108;28;20368;-77
2022/05/31 01:41:50;;;;;;;3.07;2.30;;;;;;;11.60;56.75;96286.63;5074711;28;20192;-76
2022/05/31 01:44:18;;;;;;;3.10;2.47;;;;;;;11.60;57.11;96281.38;5059081;28;20276;-76
2022/05/31 01:46:46;;;;;;;2.90;2.27;;;;;;;11.37;57.82;96284.28;5057607;28;20204;-76
2022/05/31 01:49:14;;;;;;;2.77;2.20;;;;;;;11.41;58.02;96285.38;5074724;28;20609;-76
2022/05/31 01:51:41;;;;;;;9.97;2.40;;;;;;;11.40;58.11;96281.16;5075055;28;20541;-76
2022/05/31 01:54:09;;;;;;;2.53;2.17;;;;;;;11.45;58.36;96276.75;5075018;28;20815;-76
2022/05/31 01:56:35;;;;;;;4.27;2.07;;;;;;;11.18;58.93;96281.94;5074855;28;20700;-76
2022/05/31 01:59:03;;;;;;;2.27;1.90;;;;;;;11.23;58.97;96276.75;5074794;28;20225;-76
2022/05/31 02:01:30;;;;;;;3.10;2.20;;;;;;;11.24;59.30;96280.16;5073014;28;20645;-76
2022/05/31 02:03:56;;;;;;;2.57;2.37;;;;;;;11.19;59.46;96277.50;5074438;28;20211;-76
2022/05/31 02:06:30;;;;;;;2.83;2.10;;;;;;;11.26;59.54;96283.31;5074651;28;20209;-76
2022/05/31 02:08:56;;;;;;;2.87;2.20;;;;;;;11.02;59.49;96274.09;5074749;28;20192;-77
2022/05/31 02:11:22;;;;;;;4.40;2.03;;;;;;;11.05;59.85;96279.66;5074517;28;20189;-76
2022/05/31 02:13:48;;;;;;;3.83;2.20;;;;;;;11.25;59.30;96279.94;5074893;28;20530;-76
2022/05/31 02:16:13;;;;;;;5.33;2.20;;;;;;;11.26;59.53;96280.69;5075131;28;20192;-76
2022/05/31 02:21:23;;;;;;;3.93;2.40;;;;;;;11.08;59.36;96267.91;5072050;28;20653;-76
2022/05/31 02:23:48;;;;;;;1.93;1.83;;;;;;;10.99;59.67;96269.31;5074221;28;20181;-76
2022/05/31 02:26:15;;;;;;;3.53;2.07;;;;;;;11.00;59.68;96261.22;5074250;28;20180;-76
2022/05/31 02:28:40;;;;;;;2.10;2.00;;;;;;;11.07;59.39;96269.72;5074787;28;20185;-76
2022/05/31 02:31:05;;;;;;;2.37;2.27;;;;;;;11.23;59.33;96273.34;5074471;28;20246;-76
2022/05/31 02:33:31;;;;;;;3.63;2.00;;;;;;;11.25;58.98;96268.66;5056710;28;20649;-76
2022/05/31 02:35:56;;;;;;;2.43;2.03;;;;;;;11.39;58.66;96277.72;5074237;28;20634;-76
2022/05/31 02:38:21;;;;;;;5.43;2.13;;;;;;;11.30;58.89;96278.41;5073668;28;20389;-76
2022/05/31 02:40:47;;;;;;;2.30;2.10;;;;;;;11.08;59.94;96278.38;5073981;28;20209;-76
2022/05/31 02:43:12;;;;;;;2.30;2.03;;;;;;;11.00;59.69;96279.56;5073637;28;20260;-76
2022/05/31 02:45:38;;;;;;;2.30;2.10;;;;;;;10.90;60.41;96270.78;5073742;28;20188;-76
2022/05/31 02:48:03;;;;;;;1.93;1.80;;;;;;;10.82;60.69;96274.59;5074056;28;20200;-76
2022/05/31 02:50:29;;;;;;;2.40;1.87;;;;;;;10.90;60.50;96268.97;5073811;28;20213;-76
2022/05/31 02:52:54;;;;;;;2.30;2.10;;;;;;;10.95;60.29;96271.66;5073630;28;20181;-76
2022/05/31 02:55:19;;;;;;;2.30;2.10;;;;;;;11.05;59.89;96270.97;5073575;28;20183;-76
2022/05/31 02:57:45;;;;;;;2.10;1.80;;;;;;;10.98;60.50;96275.63;5073485;28;20259;-76
2022/05/31 03:00:11;;;;;;;4.93;2.30;;;;;;;10.73;62.00;96278.66;5054675;28;20193;-76
2022/05/31 03:02:37;;;;;;;3.53;1.97;;;;;;;10.70;61.98;96277.31;5072916;28;20188;-76
2022/05/31 03:05:04;;;;;;;2.67;2.10;;;;;;;10.62;62.01;96288.19;5073117;28;20185;-76
2022/05/31 03:07:29;;;;;;;4.20;2.50;;;;;;;10.60;61.92;96285.00;5073784;28;20260;-76
2022/05/31 03:09:55;;;;;;;2.87;2.37;;;;;;;10.52;62.93;96292.50;5073405;28;20327;-76
2022/05/31 03:12:24;;;;;;;2.23;2.03;;;;;;;10.49;62.69;96293.75;5073382;28;20192;-76
2022/05/31 03:14:57;;;;;;;2.87;2.07;;;;;;;10.52;62.05;96279.38;5073219;28;20256;-76
2022/05/31 03:17:36;;;;;;;3.27;2.20;;;;;;;10.46;62.32;96289.00;5057500;28;20181;-76
2022/05/31 03:20:08;;;;;;;2.47;2.27;;;;;;;10.57;61.46;96287.31;5073236;28;20177;-76
2022/05/31 03:22:38;;;;;;;2.87;2.07;;;;;;;10.54;62.00;96288.59;5071162;28;20646;-76
2022/05/31 03:25:09;;;;;;;3.33;2.40;;;;;;;10.58;61.67;96283.69;5072471;28;20257;-76
2022/05/31 03:27:35;;;;;;;3.60;2.20;;;;;;;10.58;61.35;96287.09;5073195;28;20181;-76
2022/05/31 03:30:03;;;;;;;3.57;2.40;;;;;;;10.72;60.70;96285.72;5073227;28;20178;-76
2022/05/31 03:32:33;;;;;;;3.20;2.40;;;;;;;10.68;61.47;96291.69;5072545;28;20184;-75
2022/05/31 03:34:58;;;;;;;2.33;2.20;;;;;;;10.68;61.07;96289.88;5072685;28;20591;-76
2022/05/31 03:37:23;;;;;;;4.57;2.20;;;;;;;10.69;61.42;96282.81;5072145;28;20300;-76
2022/05/31 03:39:49;;;;;;;3.20;2.13;;;;;;;10.93;60.85;96278.16;5072819;28;20192;-76
2022/05/31 03:42:14;;;;;;;2.50;2.30;;;;;;;11.03;60.24;96280.94;5072898;28;20178;-76
2022/05/31 03:44:40;;;;;;;3.63;2.30;;;;;;;11.04;60.34;96274.63;5072846;28;20192;-76
2022/05/31 03:47:05;;;;;;;2.33;2.10;;;;;;;11.25;59.53;96277.31;5072054;28;20181;-76
2022/05/31 03:49:32;;;;;;;2.20;2.00;;;;;;;11.45;58.74;96268.88;5072950;28;20239;-76
2022/05/31 03:51:58;;;;;;;2.10;1.87;;;;;;;11.71;58.26;96272.59;5072588;28;20185;-76
2022/05/31 03:54:24;;;;;;;2.97;2.17;;;;;;;11.99;57.77;96276.84;5072516;28;20548;-76
2022/05/31 03:56:49;;;;;;;1.87;1.77;;;;;;;12.00;57.90;96284.50;5072711;28;20182;-76
2022/05/31 03:59:15;;;;;;;3.97;2.10;;;;;;;11.80;58.17;96279.03;5072190;28;21901;-76
2022/05/31 04:01:40;;;;;;;2.13;1.83;;;;;;;12.11;56.92;96274.88;5069949;28;20185;-76
2022/05/31 04:04:05;;;;;;;2.17;1.93;;;;;;;12.25;56.55;96267.41;5072807;28;20203;-76
2022/05/31 04:06:32;;;;;;;3.30;2.00;;;;;;;11.92;57.65;96271.81;5072315;28;20201;-76
2022/05/31 04:08:58;;;;;;;2.17;1.80;;;;;;;11.52;58.81;96277.38;5072088;28;20592;-76
2022/05/31 04:11:24;;;;;;;4.00;1.80;;;;;;;11.29;59.63;96277.63;5056417;28;20228;-76
2022/05/31 04:13:49;;;;;;;4.30;2.03;;;;;;;11.29;59.25;96274.19;5072537;28;20670;-76
2022/05/31 04:16:16;;;;;;;2.50;2.10;;;;;;;11.30;59.45;96283.66;5072373;28;20177;-76
2022/05/31 04:18:42;;;;;;;2.80;2.10;;;;;;;11.33;59.29;96275.28;5071997;28;20572;-75
2022/05/31 04:21:12;;;;;;;3.30;2.07;;;;;;;11.36;59.83;96267.75;5070331;28;20188;-76
2022/05/31 04:26:22;;;;;;;2.30;2.10;;;;;;;11.10;60.63;96271.03;5072181;28;20576;-76
2022/05/31 04:28:48;;;;;;;2.90;1.80;;;;;;;11.03;61.49;96268.63;5072191;28;20189;-76
2022/05/31 04:31:13;;;;;;;2.47;2.27;;;;;;;11.44;59.82;96262.03;5054011;28;20192;-76
2022/05/31 04:33:39;;;;;;;2.97;2.30;;;;;;;11.06;61.02;96257.63;5071494;28;20173;-76
2022/05/31 04:36:07;;;;;;;2.97;2.33;;;;;;;11.42;60.26;96265.97;5071008;28;20186;-76
2022/05/31 04:38:34;;;;;;;2.37;2.13;;;;;;;11.67;60.43;96253.13;5072199;28;20186;-76
2022/05/31 04:40:59;;;;;;;6.47;2.63;;;;;;;11.72;61.06;96260.25;5071876;28;20661;-76
2022/05/31 04:43:25;;;;;;;5.40;2.93;;;;;;;12.30;59.80;96262.97;5053849;28;20178;-76
2022/05/31 04:45:51;;;;;;;4.47;2.80;;;;;;;12.43;59.24;96259.13;5071938;28;20178;-76
2022/05/31 04:48:16;;;;;;;3.47;2.50;;;;;;;12.41;58.74;96258.59;5072131;28;20518;-76
2022/05/31 04:50:42;;;;;;;3.10;2.70;;;;;;;12.76;58.50;96258.84;5070410;28;20219;-76
2022/05/31 04:53:07;;;;;;;6.90;2.70;;;;;;;13.24;56.46;96260.50;5072191;28;20238;-76
2022/05/31 04:55:32;;;;;;;2.90;2.27;;;;;;;13.63;54.67;96270.66;5054207;28;20234;-76
2022/05/31 04:57:58;;;;;;;3.40;2.53;;;;;;;14.03;53.12;96262.06;5071953;28;20282;-76
2022/05/31 05:00:23;;;;;;;3.43;2.30;;;;;;;14.61;51.77;96266.09;5071254;28;20216;-77
2022/05/31 05:02:49;;;;;;;2.43;2.00;;;;;;;14.59;51.99;96262.16;5071568;28;20186;-76
2022/05/31 05:05:14;;;;;;;2.40;2.20;;;;;;;14.75;51.78;96264.50;5071704;28;20280;-76
2022/05/31 05:07:40;;;;;;;4.80;2.33;;;;;;;15.07;51.60;96263.41;5071290;28;20593;-76
2022/05/31 05:10:07;;;;;;;2.73;2.03;;;;;;;15.21;50.95;96262.56;5072014;28;20188;-76
2022/05/31 05:12:33;;;;;;;2.83;1.90;;;;;;;15.12;51.02;96253.63;5071791;28;20178;-76
2022/05/31 05:14:58;;;;;;;2.40;2.10;;;;;;;15.55;50.10;96259.34;5071595;28;20607;-76
2022/05/31 05:17:24;;;;;;;4.07;2.00;;;;;;;16.23;48.75;96257.63;5071680;28;20673;-76
2022/05/31 05:19:50;;;;;;;2.83;1.90;;;;;;;16.31;48.02;96258.91;5068969;28;20200;-76
2022/05/31 05:22:15;;;;;;;2.40;1.97;;;;;;;16.33;48.41;96252.25;5058922;28;20538;-75
2022/05/31 05:24:41;;;;;;;2.73;2.00;;;;;;;16.25;48.92;96249.44;5071762;28;20184;-76
2022/05/31 05:27:06;;;;;;;2.37;2.20;;;;;;;16.48;48.75;96254.03;5071557;28;20274;-76
2022/05/31 05:32:16;;;;;;;2.90;2.15;;;;;;;16.74;47.53;96250.13;5071095;28;20717;-76
2022/05/31 05:34:41;;;;;;;2.47;1.87;;;;;;;15.73;49.28;96250.78;5071375;28;20272;-76
2022/05/31 05:37:06;;;;;;;3.47;1.90;;;;;;;16.03;49.24;96247.97;5070786;28;20264;-76
2022/05/31 05:39:32;;;;;;;2.27;2.10;;;;;;;16.14;48.63;96254.78;5071450;28;20232;-76
2022/05/31 05:41:57;;;;;;;2.50;1.87;;;;;;;15.57;48.66;96255.34;5071777;28;20189;-75
2022/05/31 05:44:25;;;;;;;2.30;1.90;;;;;;;15.44;50.34;96253.25;5072026;28;20637;-75
2022/05/31 05:46:50;;;;;;;3.80;2.37;;;;;;;15.39;50.41;96253.28;5071161;28;20626;-77
2022/05/31 05:49:16;;;;;;;1.87;1.77;;;;;;;14.74;53.49;96254.22;5071112;28;20315;-75
2022/05/31 05:51:41;;;;;;;2.53;1.77;;;;;;;16.01;49.87;96258.03;5071340;28;20189;-75
2022/05/31 05:54:07;;;;;;;2.30;2.10;;;;;;;16.48;49.26;96254.81;5071020;28;20185;-76
2022/05/31 05:56:32;;;;;;;2.07;1.90;;;;;;;16.73;49.61;96247.75;5071143;28;20644;-76
2022/05/31 05:58:58;;;;;;;2.03;1.83;;;;;;;16.65;50.45;96251.78;5074848;28;20194;-75
2022/05/31 06:01:48;;;;;;;2.10;2.00;;;;;;;17.33;48.34;96254.31;5072147;28;20205;-76
2022/05/31 06:04:23;;;;;;;3.37;1.87;;;;;;;17.03;48.69;96260.72;5074230;28;20173;-76
2022/05/31 06:06:56;;;;;;;2.10;1.90;;;;;;;16.97;49.13;96257.31;5067049;28;20637;-76
2022/05/31 06:09:23;;;;;;;2.10;1.90;;;;;;;17.10;49.11;96266.47;5073889;28;20254;-76
2022/05/31 06:11:54;;;;;;;2.20;2.00;;;;;;;17.26;48.44;96259.16;5074431;28;20185;-76
2022/05/31 06:14:35;;;;;;;4.10;2.07;;;;;;;17.10;48.94;96266.47;5074392;28;20212;-74
2022/05/31 06:17:06;;;;;;;2.03;1.88;;;;;;;17.07;48.83;96272.31;5075167;28;20177;-75
2022/05/31 06:19:34;;;;;;;2.22;1.95;;;;;;;16.56;50.17;96274.56;5072612;28;20653;-76
2022/05/31 06:22:02;;;;;;;2.80;2.33;;;;;;;16.85;49.21;96280.72;5074675;28;20209;-76
2022/05/31 06:24:29;;;;;;;2.28;2.08;;;;;;;17.08;48.83;96268.59;5073679;28;20213;-75
2022/05/31 06:26:54;;;;;;;2.97;2.25;;;;;;;16.93;49.65;96264.25;5074591;28;20189;-75
2022/05/31 06:29:20;;;;;;;3.03;2.00;;;;;;;16.69;50.28;96259.97;5074217;28;20195;-75
2022/05/31 06:31:45;;;;;;;3.30;1.87;;;;;;;16.86;49.81;96261.13;5074218;28;20704;-74
2022/05/31 06:34:11;;;;;;;2.58;1.98;;;;;;;17.04;49.45;96264.94;5073791;28;20201;-75
2022/05/31 06:36:37;;;;;;;2.22;2.10;;;;;;;16.93;49.13;96260.81;5055354;28;20221;-75
2022/05/31 06:39:02;;;;;;;2.13;1.90;;;;;;;17.07;49.38;96269.66;5073576;28;20255;-75
2022/05/31 06:41:27;;;;;;;2.33;2.03;;;;;;;17.13;49.85;96265.91;5074028;28;20193;-74
2022/05/31 06:43:53;;;;;;;3.53;2.60;;;;;;;16.85;50.15;96264.03;5072455;28;20653;-74
2022/05/31 06:46:19;;;;;;;2.83;2.25;;;;;;;16.90;50.55;96269.28;5073273;28;20812;-72
2022/05/31 06:48:45;;;;;;;2.85;1.95;;;;;;;16.94;50.61;96268.44;5073799;28;20561;-72
2022/05/31 06:51:12;;;;;;;5.55;2.08;;;;;;;16.47;52.08;96266.47;5074844;28;20250;-72
2022/05/31 06:59:06;;;;;;;2.95;2.30;;;;;;;17.41;50.21;96270.38;5072793;28;20208;-74
2022/05/31 07:01:31;;;;;;;3.65;2.30;;;;;;;17.53;51.65;96271.81;5073371;28;20185;-74
2022/05/31 07:03:59;;;;;;;2.40;2.20;;;;;;;17.71;49.41;96258.66;5072713;28;20309;-74
2022/05/31 07:06:25;;;;;;;3.05;2.10;;;;;;;17.83;48.53;96261.66;5072995;28;20181;-74
2022/05/31 07:08:51;;;;;;;1.98;1.63;;;;;;;17.80;46.99;96270.19;5073442;28;20212;-73
2022/05/31 07:11:16;;;;;;;3.60;1.85;;;;;;;18.18;46.57;96263.03;5073620;28;20634;-74
2022/05/31 07:13:42;;;;;;;1.63;1.52;;;;;;;18.55;44.34;96261.47;5072971;28;20188;-74
2022/05/31 07:16:07;;;;;;;1.60;1.50;;;;;;;18.67;44.81;96262.56;5073815;28;20761;-74
2022/05/31 07:18:33;;;;;;;2.03;1.60;;;;;;;19.00;45.52;96258.03;5072365;28;20193;-74
2022/05/31 07:20:58;;;;;;;1.65;1.55;;;;;;;18.79;44.93;96251.50;5072493;28;20307;-74
2022/05/31 07:23:25;;;;;;;2.15;1.52;;;;;;;18.89;44.90;96242.59;5074045;28;20227;-74
2022/05/31 07:25:52;;;;;;;4.07;1.70;;;;;;;19.20;44.75;96248.13;5073878;28;20181;-74
2022/05/31 07:28:18;;;;;;;1.80;1.50;;;;;;;19.37;43.58;96245.69;5072958;28;20711;-74
2022/05/31 07:30:43;;;;;;;2.28;1.42;;;;;;;19.17;43.67;96244.16;5072823;28;20185;-74
2022/05/31 07:33:08;;;;;;;1.67;1.50;;;;;;;19.49;43.25;96246.78;5072532;28;20547;-74
2022/05/31 07:35:34;;;;;;;1.58;1.40;;;;;;;19.33;43.46;96248.16;5072769;28;20193;-74
2022/05/31 07:37:59;;;;;;;1.30;1.30;;;;;;;19.50;43.67;96247.59;5071980;28;20233;-74
2022/05/31 07:40:24;;;;;;;3.53;1.38;;;;;;;19.62;44.39;96247.06;5072628;28;20204;-74
2022/05/31 07:42:50;;;;;;;1.10;1.10;;;;;;;19.86;43.61;96247.63;5072961;28;20181;-74
2022/05/31 07:45:15;;;;;;;2.28;1.50;;;;;;;20.31;42.87;96251.97;5055030;28;20182;-74
2022/05/31 07:47:41;;;;;;;1.67;1.45;;;;;;;20.32;43.06;96252.75;5072504;28;20212;-74
2022/05/31 07:50:06;;;;;;;2.00;1.50;;;;;;;20.27;44.03;96252.84;5072715;28;20189;-74
2022/05/31 07:52:33;;;;;;;2.15;1.30;;;;;;;20.13;43.80;96252.88;5073017;28;20573;-74
2022/05/31 07:54:58;;;;;;;2.30;1.58;;;;;;;20.19;43.89;96248.22;5073569;28;20257;-74
2022/05/31 08:00:08;;;;;;;1.50;1.40;;;;;;;20.55;42.63;96253.56;5064755;28;20192;-74
2022/05/31 08:02:34;;;;;;;2.38;1.35;;;;;;;20.71;41.69;96252.91;5072583;28;20177;-74
2022/05/31 08:05:00;;;;;;;1.48;1.38;;;;;;;20.71;42.22;96247.56;5073557;28;20189;-74
2022/05/31 08:07:25;;;;;;;2.38;1.38;;;;;;;20.56;43.50;96250.56;5071865;28;20195;-74
2022/05/31 08:09:50;;;;;;;5.45;1.95;;;;;;;21.00;42.64;96248.97;5055126;28;20234;-73
2022/05/31 08:12:16;;;;;;;7.45;1.70;;;;;;;20.99;42.30;96250.84;5072762;28;20650;-74
2022/05/31 08:14:41;;;;;;;1.50;1.48;;;;;;;20.90;41.59;96252.66;5072782;28;20197;-74
2022/05/31 08:17:07;;;;;;;1.50;1.40;;;;;;;20.54;42.17;96244.78;5072069;28;20192;-74
2022/05/31 08:19:32;;;;;;;1.83;1.70;;;;;;;20.47;43.26;96236.44;5062063;28;20220;-74
2022/05/31 08:21:58;;;;;;;4.13;1.40;;;;;;;20.46;43.54;96237.50;5072211;28;20273;-74
2022/05/31 08:24:24;;;;;;;1.42;1.33;;;;;;;20.66;42.94;96238.91;5073306;28;20189;-73
2022/05/31 08:26:51;;;;;;;3.42;1.50;;;;;;;20.77;43.37;96229.56;5072242;28;20216;-74
2022/05/31 08:29:17;;;;;;;2.20;1.50;;;;;;;20.91;42.18;96240.94;5053973;28;20195;-74
2022/05/31 08:31:43;;;;;;;2.95;1.58;;;;;;;20.77;43.25;96229.56;5072143;28;20193;-74
2022/05/31 08:34:09;;;;;;;1.42;1.33;;;;;;;20.78;43.17;96227.69;5072149;28;20185;-74
2022/05/31 08:36:34;;;;;;;2.58;1.27;;;;;;;20.88;43.70;96224.78;5071619;28;20442;-73
2022/05/31 08:39:00;;;;;;;1.98;1.48;;;;;;;20.97;42.81;96233.59;5071807;28;20224;-74
2022/05/31 08:41:33;;;;;;;2.22;1.33;;;;;;;21.00;43.50;96230.34;5072863;28;20305;-73
2022/05/31 08:44:23;;;;;;;3.88;1.30;;;;;;;20.96;43.25;96224.03;5072597;28;20204;-73
2022/05/31 08:46:51;;;;;;;1.73;1.50;;;;;;;21.11;42.23;96224.44;5072210;28;20256;-73
2022/05/31 08:49:16;;;;;;;4.28;1.27;;;;;;;21.06;42.03;96221.91;5072549;28;20189;-73
2022/05/31 08:51:58;;;;;;;1.58;1.30;;;;;;;21.24;41.80;96235.31;5072208;28;20199;-73
2022/05/31 08:57:15;;;;;;;7.55;2.03;;;;;;;21.44;41.31;96221.44;5071821;28;20184;-74
2022/05/31 08:59:49;;;;;;;1.20;0.93;;;;;;;21.35;41.56;96232.06;5053715;28;20220;-74
2022/05/31 09:02:30;;;;;;;1.50;1.40;;;;;;;21.42;40.27;96229.72;5071701;28;20204;-74
2022/05/31 09:05:04;;;;;;;3.05;1.10;;;;;;;21.86;40.36;96234.06;5072144;28;20191;-74
2022/05/31 09:07:46;;;;;;;1.45;1.35;;;;;;;22.03;40.33;96229.88;5071832;28;20638;-74
2022/05/31 09:10:26;;;;;;;3.47;1.20;;;;;;;22.02;40.45;96233.66;5072720;28;20264;-74
2022/05/31 09:12:57;;;;;;;1.65;1.40;;;;;;;22.25;39.03;96235.88;5071469;28;20185;-74
2022/05/31 09:15:50;;;;;;;3.75;1.45;;;;;;;21.55;39.78;96231.50;5054376;28;20178;-74
2022/05/31 09:18:50;;;;;;;2.05;1.80;;;;;;;21.77;40.41;96225.28;5070170;28;20213;-74
2022/05/31 09:21:17;;;;;;;1.95;1.38;;;;;;;22.20;40.03;96238.69;5067205;28;20346;-74
2022/05/31 09:23:45;;;;;;;1.88;1.10;;;;;;;22.40;39.85;96227.38;5053523;28;20506;-74
2022/05/31 09:26:13;;;;;;;1.45;1.33;;;;;;;22.57;39.67;96231.16;5072479;28;20232;-75
2022/05/31 09:28:51;;;;;;;1.40;1.30;;;;;;;22.68;38.91;96229.72;5072439;28;20201;-75
2022/05/31 09:31:38;;;;;;;1.58;1.27;;;;;;;22.79;38.76;96226.41;5047967;28;20177;-74
2022/05/31 09:34:12;;;;;;;2.22;1.50;;;;;;;23.12;38.95;96234.66;5074622;28;20318;-74
2022/05/31 09:36:59;;;;;;;1.92;1.48;;;;;;;23.34;37.98;96230.16;5075589;28;20225;-74
2022/05/31 09:39:35;;;;;;;1.70;1.60;;;;;;;22.58;38.65;96228.13;5075852;28;20524;-75
2022/05/31 09:42:21;;;;;;;1.88;1.40;;;;;;;22.57;38.52;96221.22;5075848;28;20246;-74
2022/05/31 09:44:57;;;;;;;1.50;1.35;;;;;;;22.93;38.91;96220.88;5075390;28;20177;-74
2022/05/31 09:47:26;;;;;;;2.42;1.50;;;;;;;23.02;38.05;96223.50;5075478;28;20642;-75
2022/05/31 09:49:52;;;;;;;1.50;1.40;;;;;;;23.06;37.77;96221.78;5075946;28;20216;-74
2022/05/31 09:52:30;;;;;;;1.42;1.27;;;;;;;22.77;38.64;96223.28;5075284;28;20193;-75
2022/05/31 09:58:14;;;;;;;2.47;1.27;;;;;;;22.83;37.21;96221.22;5071308;28;21006;-75
2022/05/31 10:01:04;;;;;;;4.68;1.65;;;;;;;23.13;36.03;96216.69;5073813;28;20649;-74
2022/05/31 10:03:38;;;;;;;2.75;1.67;;;;;;;22.93;36.97;96215.53;5075451;28;20732;-75
2022/05/31 10:06:16;;;;;;;2.35;1.30;;;;;;;23.33;36.54;96213.34;5075507;28;20190;-75
2022/05/31 10:08:42;;;;;;;1.45;1.35;;;;;;;23.63;36.63;96216.06;5060786;28;20282;-75
2022/05/31 10:11:23;;;;;;;1.33;1.23;;;;;;;23.06;35.26;96214.53;5077114;28;20193;-75
2022/05/31 10:14:04;;;;;;;2.17;1.30;;;;;;;22.50;35.72;96204.91;5075897;28;20180;-75
2022/05/31 10:16:32;;;;;;;2.10;1.40;;;;;;;23.01;35.55;96208.59;5075512;28;20330;-75
2022/05/31 10:19:05;;;;;;;1.25;1.23;;;;;;;22.65;34.89;96196.38;5073841;28;20294;-75
2022/05/31 10:21:30;;;;;;;2.22;1.27;;;;;;;22.23;35.65;96200.69;5075114;28;20184;-75
2022/05/31 10:24:16;;;;;;;1.70;1.60;;;;;;;22.24;36.35;96201.47;5074759;28;20189;-75
2022/05/31 10:26:42;;;;;;;2.28;1.30;;;;;;;22.13;36.38;96203.66;5076833;28;20170;-75
2022/05/31 10:29:29;;;;;;;2.30;1.13;;;;;;;22.39;35.83;96196.44;5075265;28;20254;-75
2022/05/31 10:31:57;;;;;;;1.52;1.42;;;;;;;22.48;35.88;96198.31;5074436;28;20270;-74
2022/05/31 10:34:44;;;;;;;1.52;1.17;;;;;;;22.47;36.00;96194.84;5075030;28;20322;-75
2022/05/31 10:37:32;;;;;;;1.77;1.45;;;;;;;22.13;36.36;96179.63;5074688;28;20256;-75
2022/05/31 10:40:05;;;;;;;2.35;1.33;;;;;;;22.73;36.97;96194.84;5061807;28;20270;-75
2022/05/31 10:42:34;;;;;;;7.43;1.50;;;;;;;22.32;37.26;96192.66;5076616;28;20642;-75
2022/05/31 10:45:05;;;;;;;1.40;1.30;;;;;;;22.42;35.18;96192.34;5074937;28;20186;-73
2022/05/31 10:47:30;;;;;;;2.90;1.48;;;;;;;22.19;36.66;96197.06;5058553;28;20181;-75
2022/05/31 10:49:56;;;;;;;1.40;1.30;;;;;;;22.23;37.20;96203.38;5075307;28;20188;-76
2022/05/31 10:52:30;;;;;;;1.45;1.35;;;;;;;22.15;36.40;96198.00;5074879;28;20187;-75
2022/05/31 10:55:24;;;;;;;1.80;1.52;;;;;;;22.03;37.09;96201.31;5074987;28;20264;-76
2022/05/31 10:58:07;;;;;;;2.75;1.63;;;;;;;21.67;38.06;96190.13;5075105;28;20185;-75
2022/05/31 11:00:38;;;;;;;1.63;1.52;;;;;;;21.91;38.38;96196.56;5073955;28;20284;-76
2022/05/31 11:03:30;;;;;;;2.75;1.80;;;;;;;21.63;39.05;96200.59;5075065;28;20224;-76
2022/05/31 11:06:28;;;;;;;2.47;1.70;;;;;;;21.40;40.92;96201.81;5072916;28;20630;-76
2022/05/31 11:12:58;;;;;;;2.08;1.60;;;;;;;21.90;40.75;96188.88;4974964;28;20246;-76
2022/05/31 11:15:35;;;;;;;3.88;1.77;;;;;;;21.13;40.97;96197.44;4969937;28;20220;-77
2022/05/31 11:18:37;;;;;;;2.17;1.42;;;;;;;21.32;41.10;96197.25;4972781;28;20232;-75
2022/05/31 11:21:11;;;;;;;3.22;1.70;;;;;;;21.43;41.86;96196.66;4956990;28;20255;-76
2022/05/31 11:23:57;;;;;;;2.40;1.83;;;;;;;21.65;40.99;96194.97;4958705;28;20597;-75
2022/05/31 11:26:48;;;;;;;2.95;2.08;;;;;;;21.69;40.89;96198.56;4974301;28;20184;-75
2022/05/31 11:29:22;;;;;;;2.65;1.70;;;;;;;21.96;40.95;96204.44;4973180;28;20212;-75
2022/05/31 11:32:07;;;;;;;1.77;1.67;;;;;;;21.82;40.24;96201.13;4972003;28;20197;-76
2022/05/31 11:34:46;;;;;;;4.20;2.00;;;;;;;21.71;40.58;96204.38;4973446;28;20195;-76
2022/05/31 11:37:43;;;;;;;1.98;1.77;;;;;;;21.27;42.25;96208.03;4972518;28;20294;-75
2022/05/31 11:40:17;;;;;;;2.70;2.10;;;;;;;21.48;42.03;96201.84;4961261;28;20209;-76
2022/05/31 11:43:11;;;;;;;4.20;2.30;;;;;;;21.03;41.41;96203.84;5024011;28;20192;-75
2022/05/31 11:45:51;;;;;;;3.13;2.25;;;;;;;20.67;41.54;96211.19;5073093;28;20197;-75
2022/05/31 11:48:25;;;;;;;2.70;1.98;;;;;;;20.86;41.57;96203.75;5073312;28;20169;-75
2022/05/31 11:51:29;;;;;;;5.07;2.22;;;;;;;20.62;40.69;96203.31;5055147;28;20234;-75
2022/05/31 11:53:54;;;;;;;3.85;2.08;;;;;;;20.85;41.38;96210.19;5060579;28;20180;-76
2022/05/31 11:56:35;;;;;;;3.25;2.00;;;;;;;20.68;40.94;96202.88;5072523;28;20173;-74
2022/05/31 11:59:07;;;;;;;2.58;1.70;;;;;;;21.17;40.05;96205.66;5058605;28;20215;-76
2022/05/31 12:01:57;;;;;;;6.18;1.80;;;;;;;21.53;40.00;96215.03;5074097;28;20208;-75
2022/05/31 12:04:47;;;;;;;3.97;1.70;;;;;;;21.94;37.80;96205.84;5073383;28;20177;-75
2022/05/31 12:07:32;;;;;;;3.58;1.65;;;;;;;21.42;36.91;96208.41;5073826;28;20181;-75
2022/05/31 12:10:04;;;;;;;1.65;1.52;;;;;;;20.95;37.76;96203.81;5068937;28;20250;-75
2022/05/31 12:12:32;;;;;;;3.28;1.40;;;;;;;21.18;37.30;96208.00;5074280;28;20242;-74
2022/05/31 12:15:21;;;;;;;2.38;1.35;;;;;;;21.35;37.14;96207.28;5072210;28;20554;-75